createdAt,value
2023-03-31T00:00:04.371Z,10.81
2023-03-31T00:01:01.186Z,10.52
2023-03-31T00:01:58.068Z,10.55
2023-03-31T00:02:56.314Z,10.72
2023-03-31T00:04:02.243Z,10.18
2023-03-31T00:05:00.219Z,11.01
2023-03-31T00:05:59.701Z,11.02
2023-03-31T00:06:56.525Z,10.09
2023-03-31T00:08:01.178Z,10.93
2023-03-31T00:09:01.998Z,10.63
2023-03-31T00:10:16.691Z,10.69
2023-03-31T00:11:14.894Z,10.80
2023-03-31T00:12:15.965Z,10.94
2023-03-31T00:13:13.747Z,11.24
2023-03-31T00:14:10.974Z,11.02
2023-03-31T00:15:08.221Z,10.39
2023-03-31T00:16:09.058Z,10.53
2023-03-31T00:17:06.421Z,10.90
2023-03-31T00:18:04.183Z,11.22
2023-03-31T00:19:02.167Z,11.07
2023-03-31T00:20:01.066Z,11.42
2023-03-31T00:21:24.764Z,11.30
2023-03-31T00:22:22.800Z,11.23
2023-03-31T00:23:28.047Z,11.39
2023-03-31T00:24:24.837Z,11.34
2023-03-31T00:25:21.700Z,11.61
2023-03-31T00:26:18.476Z,11.54
2023-03-31T00:27:15.715Z,11.25
2023-03-31T00:28:12.472Z,11.52
2023-03-31T00:29:12.067Z,11.34
2023-03-31T00:30:09.263Z,11.53
2023-03-31T00:31:06.288Z,11.23
2023-03-31T00:32:03.115Z,11.50
2023-03-31T00:33:00.825Z,11.13
2023-03-31T00:33:58.118Z,11.22
2023-03-31T00:34:54.889Z,11.80
2023-03-31T00:35:52.660Z,11.85
2023-03-31T00:36:50.078Z,11.47
2023-03-31T00:37:47.336Z,11.31
2023-03-31T00:38:46.416Z,11.29
2023-03-31T00:39:43.416Z,11.54
2023-03-31T00:40:46.314Z,11.64
2023-03-31T00:41:44.196Z,11.45
2023-03-31T00:42:42.665Z,11.47
2023-03-31T00:43:41.045Z,11.28
2023-03-31T00:45:16.588Z,11.47
2023-03-31T00:46:27.777Z,11.20
2023-03-31T00:47:29.970Z,11.51
2023-03-31T00:48:27.744Z,11.36
2023-03-31T00:49:47.377Z,11.68
2023-03-31T00:50:53.648Z,11.79
2023-03-31T00:51:55.281Z,11.84
2023-03-31T00:53:00.633Z,11.65
2023-03-31T00:54:05.056Z,11.91
2023-03-31T00:55:10.120Z,11.91
2023-03-31T00:56:12.926Z,11.59
2023-03-31T00:57:12.014Z,11.57
2023-03-31T00:58:14.638Z,11.37
2023-03-31T00:59:13.347Z,11.09
2023-03-31T01:00:16.934Z,11.09
2023-03-31T01:01:19.376Z,11.00
2023-03-31T01:02:20.797Z,11.26
2023-03-31T01:03:18.572Z,11.30
2023-03-31T01:04:16.741Z,11.27
2023-03-31T01:05:13.550Z,11.47
2023-03-31T01:06:10.662Z,11.37
2023-03-31T01:07:18.548Z,11.69
2023-03-31T01:08:18.943Z,11.62
2023-03-31T01:09:17.138Z,11.37
2023-03-31T01:10:14.472Z,11.05
2023-03-31T01:11:16.493Z,11.30
2023-03-31T01:12:17.915Z,11.39
2023-03-31T01:13:17.021Z,11.13
2023-03-31T01:14:14.831Z,11.02
2023-03-31T01:15:11.961Z,11.14
2023-03-31T01:16:09.310Z,11.48
2023-03-31T01:17:09.951Z,11.52
2023-03-31T01:18:07.604Z,11.29
2023-03-31T01:19:04.487Z,11.14
2023-03-31T01:20:28.825Z,11.18
2023-03-31T01:22:03.925Z,11.21
2023-03-31T01:23:28.013Z,11.36
2023-03-31T01:24:27.608Z,11.45
2023-03-31T01:25:58.419Z,11.05
2023-03-31T01:27:37.373Z,11.41
2023-03-31T01:28:52.374Z,11.57
2023-03-31T01:30:25.980Z,11.07
2023-03-31T01:31:44.271Z,11.82
2023-03-31T01:32:43.805Z,11.76
2023-03-31T01:34:16.560Z,11.59
2023-03-31T01:35:37.627Z,11.69
2023-03-31T01:36:59.093Z,12.05
2023-03-31T01:38:16.068Z,12.00
2023-03-31T01:39:30.930Z,11.92
2023-03-31T01:40:51.815Z,12.01
2023-03-31T01:42:26.430Z,12.29
2023-03-31T01:43:23.143Z,12.28
2023-03-31T01:44:57.511Z,12.19
2023-03-31T01:45:54.388Z,11.99
2023-03-31T01:46:56.765Z,12.15
2023-03-31T01:48:18.222Z,12.39
2023-03-31T01:49:38.897Z,11.83
2023-03-31T01:50:38.475Z,12.44
2023-03-31T01:52:07.252Z,12.17
2023-03-31T01:53:12.522Z,12.39
2023-03-31T01:54:54.514Z,12.36
2023-03-31T01:56:19.833Z,12.32
2023-03-31T01:57:28.991Z,12.32
2023-03-31T01:58:43.131Z,12.72
2023-03-31T02:00:09.681Z,12.58
2023-03-31T02:01:19.818Z,12.54
2023-03-31T02:02:32.710Z,12.59
2023-03-31T02:03:45.606Z,12.11
2023-03-31T02:04:57.158Z,12.64
2023-03-31T02:05:59.817Z,12.52
2023-03-31T02:07:19.100Z,12.71
2023-03-31T02:08:25.024Z,12.63
2023-03-31T02:09:28.584Z,12.64
2023-03-31T02:10:30.874Z,12.79
2023-03-31T02:11:30.384Z,12.41
2023-03-31T02:12:32.576Z,12.77
2023-03-31T02:13:34.551Z,12.77
2023-03-31T02:14:33.691Z,12.77
2023-03-31T02:15:39.066Z,12.28
2023-03-31T02:16:42.020Z,12.57
2023-03-31T02:18:48.329Z,12.80
2023-03-31T02:19:51.574Z,12.66
2023-03-31T02:20:52.598Z,12.35
2023-03-31T02:21:51.132Z,12.30
2023-03-31T02:22:54.476Z,12.70
2023-03-31T02:23:52.424Z,12.28
2023-03-31T02:24:53.121Z,12.73
2023-03-31T02:26:08.536Z,12.56
2023-03-31T02:27:31.111Z,12.65
2023-03-31T02:28:29.456Z,12.17
2023-03-31T02:29:26.351Z,12.49
2023-03-31T02:30:25.507Z,12.45
2023-03-31T02:31:40.977Z,12.37
2023-03-31T02:32:41.180Z,12.42
2023-03-31T02:33:38.384Z,12.24
2023-03-31T02:34:35.964Z,12.33
2023-03-31T02:35:34.938Z,12.44
2023-03-31T02:36:34.641Z,11.94
2023-03-31T02:37:32.000Z,12.12
2023-03-31T02:38:38.188Z,11.93
2023-03-31T02:39:39.512Z,12.22
2023-03-31T02:40:36.223Z,11.86
2023-03-31T02:41:33.437Z,12.07
2023-03-31T02:42:30.572Z,12.09
2023-03-31T02:43:27.380Z,11.90
2023-03-31T02:44:25.053Z,11.86
2023-03-31T02:45:49.699Z,11.64
2023-03-31T02:46:48.137Z,11.39
2023-03-31T02:47:44.977Z,11.77
2023-03-31T02:48:48.694Z,11.61
2023-03-31T02:49:51.603Z,11.55
2023-03-31T02:50:51.303Z,11.75
2023-03-31T02:51:59.297Z,11.53
2023-03-31T02:53:17.318Z,11.74
2023-03-31T02:54:23.011Z,11.57
2023-03-31T02:55:40.623Z,11.68
2023-03-31T02:57:20.118Z,11.63
2023-03-31T02:58:36.343Z,11.71
2023-03-31T02:59:38.828Z,11.63
2023-03-31T03:00:35.565Z,11.86
2023-03-31T03:02:10.857Z,11.67
2023-03-31T03:03:16.294Z,11.84
2023-03-31T03:04:37.141Z,11.83
2023-03-31T03:05:46.012Z,11.82
2023-03-31T03:06:57.558Z,11.61
2023-03-31T03:08:12.876Z,11.62
2023-03-31T03:09:30.072Z,11.55
2023-03-31T03:10:36.689Z,11.58
2023-03-31T03:12:07.936Z,11.61
2023-03-31T03:13:16.581Z,11.59
2023-03-31T03:14:40.850Z,11.60
2023-03-31T03:15:49.720Z,11.55
2023-03-31T03:16:57.391Z,11.22
2023-03-31T03:17:56.967Z,11.40
2023-03-31T03:18:59.068Z,11.36
2023-03-31T03:20:00.823Z,11.33
2023-03-31T03:20:57.813Z,11.59
2023-03-31T03:21:54.692Z,11.38
2023-03-31T03:22:51.682Z,11.60
2023-03-31T03:23:48.428Z,11.73
2023-03-31T03:24:45.151Z,11.61
2023-03-31T03:25:42.142Z,11.67
2023-03-31T03:26:38.924Z,10.88
2023-03-31T03:27:36.501Z,11.44
2023-03-31T03:28:33.261Z,11.72
2023-03-31T03:29:30.029Z,11.57
2023-03-31T03:30:26.773Z,11.63
2023-03-31T03:31:26.356Z,11.48
2023-03-31T03:32:23.324Z,11.64
2023-03-31T03:33:20.100Z,11.20
2023-03-31T03:34:18.930Z,11.17
2023-03-31T03:35:15.856Z,11.13
2023-03-31T03:36:12.973Z,10.80
2023-03-31T03:37:09.784Z,11.13
2023-03-31T03:38:06.572Z,11.01
2023-03-31T03:39:05.039Z,11.25
2023-03-31T03:40:02.289Z,11.01
2023-03-31T03:40:59.167Z,11.10
2023-03-31T03:41:56.278Z,11.35
2023-03-31T03:42:53.006Z,11.69
2023-03-31T03:43:49.762Z,11.93
2023-03-31T03:44:46.547Z,11.36
2023-03-31T03:45:48.518Z,11.26
2023-03-31T03:46:45.365Z,11.30
2023-03-31T03:47:42.287Z,11.43
2023-03-31T03:48:39.135Z,11.47
2023-03-31T03:49:36.008Z,11.22
2023-03-31T03:50:36.295Z,10.98
2023-03-31T03:51:33.171Z,10.93
2023-03-31T03:52:29.986Z,10.74
2023-03-31T03:53:27.775Z,10.83
2023-03-31T03:54:24.816Z,10.44
2023-03-31T03:55:21.547Z,10.21
2023-03-31T03:56:18.341Z,10.12
2023-03-31T03:57:15.638Z,9.88
2023-03-31T03:58:12.530Z,10.25
2023-03-31T03:59:10.618Z,10.16
2023-03-31T04:00:12.668Z,10.08
2023-03-31T04:02:20.428Z,9.37
2023-03-31T04:03:19.892Z,10.29
2023-03-31T04:04:16.706Z,10.19
2023-03-31T04:05:13.587Z,10.09
2023-03-31T04:06:10.940Z,9.89
2023-03-31T04:07:07.852Z,10.14
2023-03-31T04:08:06.257Z,9.28
2023-03-31T04:09:04.121Z,10.13
2023-03-31T04:10:01.018Z,9.87
2023-03-31T04:10:57.868Z,9.76
2023-03-31T04:11:54.648Z,10.27
2023-03-31T04:12:51.525Z,10.13
2023-03-31T04:13:48.377Z,10.18
2023-03-31T04:14:45.294Z,10.53
2023-03-31T04:15:42.870Z,10.02
2023-03-31T04:16:40.600Z,10.41
2023-03-31T04:17:37.809Z,10.49
2023-03-31T04:18:37.135Z,10.57
2023-03-31T04:19:34.686Z,10.38
2023-03-31T04:20:31.903Z,10.32
2023-03-31T04:21:30.736Z,10.47
2023-03-31T04:22:35.282Z,10.61
2023-03-31T04:23:46.273Z,10.61
2023-03-31T04:24:46.652Z,10.59
2023-03-31T04:25:46.386Z,10.40
2023-03-31T04:26:43.582Z,10.03
2023-03-31T04:27:54.707Z,10.59
2023-03-31T04:28:51.721Z,10.69
2023-03-31T04:29:54.770Z,9.88
2023-03-31T04:30:51.590Z,10.38
2023-03-31T04:31:50.988Z,10.23
2023-03-31T04:32:50.741Z,10.36
2023-03-31T04:33:48.090Z,10.21
2023-03-31T04:34:46.528Z,10.30
2023-03-31T04:35:52.745Z,10.22
2023-03-31T04:36:50.404Z,10.30
2023-03-31T04:37:48.556Z,10.26
2023-03-31T04:38:47.001Z,10.41
2023-03-31T04:39:46.809Z,10.39
2023-03-31T04:40:43.558Z,9.88
2023-03-31T04:41:40.374Z,10.46
2023-03-31T04:42:37.256Z,10.33
2023-03-31T04:43:33.976Z,10.58
2023-03-31T04:44:30.706Z,10.30
2023-03-31T04:45:27.618Z,9.95
2023-03-31T04:46:25.586Z,10.86
2023-03-31T04:47:22.519Z,11.01
2023-03-31T04:48:19.281Z,10.70
2023-03-31T04:49:16.053Z,11.02
2023-03-31T04:50:16.176Z,10.41
2023-03-31T04:51:15.543Z,11.18
2023-03-31T04:52:12.404Z,10.93
2023-03-31T04:53:09.274Z,11.02
2023-03-31T04:54:06.128Z,11.17
2023-03-31T04:55:03.433Z,11.39
2023-03-31T04:56:00.742Z,11.19
2023-03-31T04:56:57.544Z,11.68
2023-03-31T04:57:54.442Z,11.85
2023-03-31T04:58:51.358Z,11.78
2023-03-31T04:59:48.146Z,11.86
2023-03-31T05:00:45.017Z,11.83
2023-03-31T05:01:45.164Z,11.61
2023-03-31T05:02:42.096Z,11.69
2023-03-31T05:03:39.157Z,11.97
2023-03-31T05:04:36.022Z,11.93
2023-03-31T05:05:33.349Z,11.77
2023-03-31T05:06:30.603Z,11.19
2023-03-31T05:07:27.417Z,11.92
2023-03-31T05:08:24.229Z,12.11
2023-03-31T05:09:24.043Z,12.12
2023-03-31T05:10:21.849Z,12.43
2023-03-31T05:11:18.615Z,11.88
2023-03-31T05:12:15.458Z,12.28
2023-03-31T05:13:12.417Z,12.05
2023-03-31T05:14:09.230Z,12.18
2023-03-31T05:15:07.378Z,11.58
2023-03-31T05:16:15.077Z,12.25
2023-03-31T05:17:11.847Z,12.29
2023-03-31T05:18:08.662Z,12.18
2023-03-31T05:19:05.489Z,12.26
2023-03-31T05:20:06.184Z,12.10
2023-03-31T05:21:11.163Z,12.03
2023-03-31T05:22:07.937Z,12.14
2023-03-31T05:23:06.711Z,12.23
2023-03-31T05:24:04.773Z,12.60
2023-03-31T05:25:01.542Z,12.67
2023-03-31T05:26:17.147Z,12.73
2023-03-31T05:27:17.302Z,12.75
2023-03-31T05:28:14.118Z,12.82
2023-03-31T05:29:10.913Z,12.79
2023-03-31T05:30:08.285Z,12.77
2023-03-31T05:31:06.903Z,12.74
2023-03-31T05:32:05.801Z,12.52
2023-03-31T05:33:02.705Z,12.65
2023-03-31T05:33:59.678Z,12.58
2023-03-31T05:34:57.854Z,12.01
2023-03-31T05:35:55.364Z,12.13
2023-03-31T05:36:54.000Z,11.80
2023-03-31T05:37:51.248Z,12.24
2023-03-31T05:38:48.414Z,12.39
2023-03-31T05:39:45.208Z,12.60
2023-03-31T05:40:41.945Z,12.54
2023-03-31T05:41:38.921Z,12.73
2023-03-31T05:42:36.207Z,12.59
2023-03-31T05:43:33.367Z,12.41
2023-03-31T05:44:30.116Z,12.49
2023-03-31T05:45:27.137Z,12.63
2023-03-31T05:46:24.260Z,12.62
2023-03-31T05:47:21.101Z,12.60
2023-03-31T05:48:19.991Z,12.72
2023-03-31T05:49:17.479Z,12.47
2023-03-31T05:50:14.937Z,12.67
2023-03-31T05:51:11.842Z,12.43
2023-03-31T05:52:09.553Z,12.46
2023-03-31T05:53:06.309Z,12.54
2023-03-31T05:54:03.271Z,12.61
2023-03-31T05:54:59.997Z,12.62
2023-03-31T05:56:02.061Z,12.45
2023-03-31T05:57:07.817Z,12.80
2023-03-31T05:58:04.964Z,12.83
2023-03-31T05:59:01.833Z,13.14
2023-03-31T05:59:58.673Z,13.19
2023-03-31T06:01:11.645Z,13.35
2023-03-31T06:02:13.666Z,13.47
2023-03-31T06:03:10.644Z,12.93
2023-03-31T06:04:07.428Z,13.07
2023-03-31T06:05:04.414Z,12.76
2023-03-31T06:06:02.155Z,13.22
2023-03-31T06:06:59.908Z,13.10
2023-03-31T06:07:57.139Z,13.13
2023-03-31T06:08:54.090Z,12.90
2023-03-31T06:09:51.564Z,12.90
2023-03-31T06:10:48.288Z,12.87
2023-03-31T06:11:45.175Z,13.16
2023-03-31T06:12:41.957Z,13.04
2023-03-31T06:13:40.006Z,13.07
2023-03-31T06:14:36.749Z,12.97
2023-03-31T06:15:33.609Z,13.29
2023-03-31T06:16:30.591Z,13.48
2023-03-31T06:17:27.863Z,13.31
2023-03-31T06:18:25.049Z,13.43
2023-03-31T06:19:22.027Z,13.25
2023-03-31T06:20:27.937Z,13.07
2023-03-31T06:21:25.327Z,12.85
2023-03-31T06:22:22.073Z,13.46
2023-03-31T06:23:18.876Z,13.36
2023-03-31T06:24:15.708Z,13.67
2023-03-31T06:25:12.537Z,13.67
2023-03-31T06:26:09.370Z,13.44
2023-03-31T06:27:06.976Z,13.53
2023-03-31T06:28:03.843Z,13.56
2023-03-31T06:29:00.692Z,13.74
2023-03-31T06:29:57.448Z,13.73
2023-03-31T06:31:09.651Z,13.72
2023-03-31T06:32:06.870Z,13.90
2023-03-31T06:33:03.890Z,13.74
2023-03-31T06:34:03.442Z,13.41
2023-03-31T06:35:00.187Z,13.85
2023-03-31T06:35:57.694Z,13.86
2023-03-31T06:36:54.484Z,13.87
2023-03-31T06:37:51.250Z,13.92
2023-03-31T06:38:49.833Z,13.87
2023-03-31T06:39:49.136Z,14.11
2023-03-31T06:40:46.118Z,14.01
2023-03-31T06:41:46.123Z,14.15
2023-03-31T06:42:48.275Z,14.07
2023-03-31T06:43:54.673Z,13.45
2023-03-31T06:44:53.259Z,13.36
2023-03-31T06:45:52.449Z,14.21
2023-03-31T06:46:50.632Z,13.91
2023-03-31T06:47:47.512Z,13.90
2023-03-31T06:48:44.421Z,13.66
2023-03-31T06:49:41.226Z,13.46
2023-03-31T06:50:44.876Z,13.64
2023-03-31T06:51:44.632Z,13.83
2023-03-31T06:52:41.376Z,13.53
2023-03-31T06:53:38.112Z,13.28
2023-03-31T06:54:34.841Z,13.75
2023-03-31T06:55:34.037Z,13.68
2023-03-31T06:56:30.812Z,13.49
2023-03-31T06:57:33.392Z,13.79
2023-03-31T06:58:32.778Z,13.95
2023-03-31T06:59:29.545Z,13.88
2023-03-31T07:00:27.207Z,13.18
2023-03-31T07:01:24.249Z,13.81
2023-03-31T07:02:21.186Z,13.59
2023-03-31T07:03:19.058Z,13.61
2023-03-31T07:04:16.268Z,13.79
2023-03-31T07:05:15.640Z,14.22
2023-03-31T07:06:12.445Z,13.84
2023-03-31T07:07:09.609Z,13.62
2023-03-31T07:08:06.576Z,13.83
2023-03-31T07:09:04.591Z,13.88
2023-03-31T07:10:01.412Z,14.01
2023-03-31T07:11:00.863Z,13.77
2023-03-31T07:11:57.646Z,14.11
2023-03-31T07:12:54.899Z,14.27
2023-03-31T07:13:51.636Z,14.24
2023-03-31T07:14:48.388Z,14.15
2023-03-31T07:15:48.640Z,13.90
2023-03-31T07:16:45.465Z,14.23
2023-03-31T07:17:43.337Z,14.59
2023-03-31T07:18:42.163Z,14.49
2023-03-31T07:19:42.289Z,14.64
2023-03-31T07:20:39.117Z,14.67
2023-03-31T07:21:35.820Z,14.79
2023-03-31T07:22:35.176Z,14.91
2023-03-31T07:23:32.256Z,14.90
2023-03-31T07:24:30.528Z,15.16
2023-03-31T07:25:27.265Z,14.94
2023-03-31T07:26:24.379Z,15.19
2023-03-31T07:27:25.500Z,14.87
2023-03-31T07:28:25.843Z,14.87
2023-03-31T07:29:22.603Z,15.00
2023-03-31T07:30:20.754Z,14.80
2023-03-31T07:31:17.977Z,15.10
2023-03-31T07:32:14.746Z,15.05
2023-03-31T07:33:11.662Z,15.14
2023-03-31T07:34:08.620Z,14.89
2023-03-31T07:35:06.610Z,14.68
2023-03-31T07:36:12.935Z,14.98
2023-03-31T07:37:11.130Z,15.06
2023-03-31T07:38:12.541Z,15.16
2023-03-31T07:39:09.402Z,14.87
2023-03-31T07:40:09.967Z,15.28
2023-03-31T07:41:13.786Z,15.15
2023-03-31T07:42:10.589Z,15.36
2023-03-31T07:43:07.970Z,15.42
2023-03-31T07:44:04.823Z,15.29
2023-03-31T07:45:02.286Z,15.42
2023-03-31T07:45:59.056Z,15.22
2023-03-31T07:47:01.604Z,15.37
2023-03-31T07:47:58.634Z,15.34
2023-03-31T07:48:58.331Z,15.23
2023-03-31T07:49:58.328Z,15.27
2023-03-31T07:50:55.446Z,15.22
2023-03-31T07:51:52.196Z,15.43
2023-03-31T07:52:49.259Z,15.56
2023-03-31T07:53:49.397Z,15.15
2023-03-31T07:54:49.692Z,15.40
2023-03-31T07:55:48.390Z,15.39
2023-03-31T07:56:45.289Z,15.11
2023-03-31T07:57:46.420Z,15.30
2023-03-31T07:58:56.068Z,15.29
2023-03-31T07:59:55.469Z,15.41
2023-03-31T08:00:52.181Z,15.17
2023-03-31T08:01:48.990Z,15.07
2023-03-31T08:02:46.676Z,14.81
2023-03-31T08:03:44.987Z,14.62
2023-03-31T08:04:44.594Z,14.73
2023-03-31T08:05:41.368Z,14.74
2023-03-31T08:06:39.404Z,14.67
2023-03-31T08:07:37.885Z,14.89
2023-03-31T08:08:34.729Z,14.78
2023-03-31T08:09:31.598Z,15.31
2023-03-31T08:10:28.572Z,15.57
2023-03-31T08:11:26.404Z,15.28
2023-03-31T08:12:23.144Z,15.60
2023-03-31T08:13:20.017Z,15.56
2023-03-31T08:14:21.929Z,15.47
2023-03-31T08:15:24.648Z,15.69
2023-03-31T08:16:21.470Z,15.38
2023-03-31T08:17:18.409Z,15.16
2023-03-31T08:18:18.047Z,15.27
2023-03-31T08:19:14.893Z,15.17
2023-03-31T08:20:11.987Z,15.51
2023-03-31T08:21:12.222Z,15.77
2023-03-31T08:22:08.957Z,15.48
2023-03-31T08:23:09.071Z,15.63
2023-03-31T08:24:06.261Z,15.58
2023-03-31T08:25:04.312Z,15.65
2023-03-31T08:26:13.986Z,15.81
2023-03-31T08:27:12.654Z,16.02
2023-03-31T08:28:14.002Z,16.09
2023-03-31T08:29:10.865Z,16.14
2023-03-31T08:30:10.606Z,16.09
2023-03-31T08:31:08.819Z,16.14
2023-03-31T08:32:07.104Z,16.15
2023-03-31T08:33:04.272Z,16.47
2023-03-31T08:34:02.810Z,16.47
2023-03-31T08:34:59.812Z,16.59
2023-03-31T08:35:56.714Z,16.02
2023-03-31T08:36:53.479Z,16.77
2023-03-31T08:37:50.466Z,16.86
2023-03-31T08:38:49.462Z,16.60
2023-03-31T08:39:46.270Z,17.02
2023-03-31T08:40:43.340Z,17.25
2023-03-31T08:41:58.751Z,17.14
2023-03-31T08:43:27.926Z,17.38
2023-03-31T08:44:49.768Z,17.78
2023-03-31T08:45:49.679Z,16.46
2023-03-31T08:46:55.229Z,16.27
2023-03-31T08:48:17.167Z,15.85
2023-03-31T08:49:18.471Z,15.38
2023-03-31T08:50:22.853Z,15.54
2023-03-31T08:51:27.185Z,14.37
2023-03-31T08:52:34.677Z,15.87
2023-03-31T08:53:39.335Z,15.56
2023-03-31T08:54:41.916Z,16.22
2023-03-31T08:55:52.237Z,15.81
2023-03-31T08:56:51.317Z,15.94
2023-03-31T08:58:05.807Z,15.83
2023-03-31T08:59:05.586Z,16.30
2023-03-31T09:00:07.310Z,16.14
2023-03-31T09:01:19.796Z,16.26
2023-03-31T09:02:32.113Z,16.39
2023-03-31T09:03:41.473Z,15.94
2023-03-31T09:05:07.161Z,16.16
2023-03-31T09:06:15.348Z,16.27
2023-03-31T09:07:53.480Z,16.01
2023-03-31T09:08:55.731Z,15.94
2023-03-31T09:10:02.002Z,16.40
2023-03-31T09:11:22.788Z,16.27
2023-03-31T09:12:29.918Z,16.13
2023-03-31T09:14:14.681Z,16.22
2023-03-31T09:15:17.458Z,16.00
2023-03-31T09:16:37.309Z,16.10
2023-03-31T09:17:39.961Z,15.76
2023-03-31T09:18:44.003Z,16.32
2023-03-31T09:19:51.125Z,16.81
2023-03-31T09:20:52.879Z,16.87
2023-03-31T09:21:56.177Z,16.42
2023-03-31T09:23:20.495Z,16.64
2023-03-31T09:24:30.930Z,16.18
2023-03-31T09:25:36.245Z,16.34
2023-03-31T09:27:01.316Z,16.42
2023-03-31T09:28:03.440Z,16.55
2023-03-31T09:29:07.241Z,16.05
2023-03-31T09:30:12.914Z,15.42
2023-03-31T09:31:21.016Z,15.82
2023-03-31T09:32:30.329Z,16.23
2023-03-31T09:33:34.159Z,16.30
2023-03-31T09:34:34.722Z,15.69
2023-03-31T09:35:33.745Z,16.03
2023-03-31T09:36:30.908Z,16.62
2023-03-31T09:37:32.986Z,16.93
2023-03-31T09:38:31.309Z,16.56
2023-03-31T09:39:28.129Z,16.84
2023-03-31T09:40:28.655Z,16.70
2023-03-31T09:41:26.014Z,16.54
2023-03-31T09:42:25.814Z,16.90
2023-03-31T09:43:26.192Z,16.82
2023-03-31T09:44:28.589Z,16.86
2023-03-31T09:45:28.795Z,16.70
2023-03-31T09:46:36.005Z,16.20
2023-03-31T09:47:40.223Z,16.54
2023-03-31T09:48:40.253Z,16.99
2023-03-31T09:49:39.081Z,17.42
2023-03-31T09:50:50.406Z,17.43
2023-03-31T09:51:55.412Z,17.55
2023-03-31T09:53:00.800Z,17.58
2023-03-31T09:54:24.577Z,17.82
2023-03-31T09:55:44.563Z,17.78
2023-03-31T09:56:49.215Z,17.63
2023-03-31T09:57:46.472Z,17.68
2023-03-31T09:58:48.898Z,17.85
2023-03-31T09:59:51.851Z,17.89
2023-03-31T10:01:06.560Z,17.53
2023-03-31T10:02:35.247Z,17.25
2023-03-31T10:03:37.327Z,17.22
2023-03-31T10:04:36.741Z,17.34
2023-03-31T10:05:37.727Z,17.47
2023-03-31T10:06:42.251Z,17.09
2023-03-31T10:07:40.056Z,17.55
2023-03-31T10:08:47.717Z,17.49
2023-03-31T10:09:44.712Z,16.75
2023-03-31T10:10:52.085Z,17.21
2023-03-31T10:12:20.212Z,17.58
2023-03-31T10:13:22.570Z,17.37
2023-03-31T10:14:27.430Z,17.06
2023-03-31T10:15:28.236Z,16.81
2023-03-31T10:16:35.213Z,17.06
2023-03-31T10:17:47.108Z,16.98
2023-03-31T10:19:11.874Z,16.97
2023-03-31T10:20:31.332Z,16.78
2023-03-31T10:21:40.754Z,16.72
2023-03-31T10:22:45.024Z,16.87
2023-03-31T10:23:47.835Z,16.89
2023-03-31T10:24:49.965Z,17.06
2023-03-31T10:25:48.829Z,16.77
2023-03-31T10:26:52.352Z,17.08
2023-03-31T10:27:53.900Z,16.86
2023-03-31T10:28:53.034Z,16.91
2023-03-31T10:30:19.166Z,16.96
2023-03-31T10:31:16.756Z,17.11
2023-03-31T10:32:23.360Z,17.05
2023-03-31T10:33:27.292Z,16.38
2023-03-31T10:34:25.004Z,17.06
2023-03-31T10:35:24.538Z,16.78
2023-03-31T10:36:39.141Z,16.86
2023-03-31T10:37:37.623Z,16.92
2023-03-31T10:38:46.190Z,16.55
2023-03-31T10:39:44.598Z,17.06
2023-03-31T10:40:55.097Z,16.82
2023-03-31T10:41:53.773Z,17.33
2023-03-31T10:43:11.003Z,16.81
2023-03-31T10:44:33.389Z,16.89
2023-03-31T10:45:38.654Z,16.85
2023-03-31T10:46:52.938Z,17.00
2023-03-31T10:47:54.709Z,16.72
2023-03-31T10:48:51.560Z,17.12
2023-03-31T10:49:55.899Z,16.93
2023-03-31T10:51:02.046Z,17.25
2023-03-31T10:52:01.281Z,17.49
2023-03-31T10:53:13.560Z,17.73
2023-03-31T10:54:10.474Z,17.52
2023-03-31T10:55:17.236Z,17.46
2023-03-31T10:56:38.425Z,17.67
2023-03-31T10:57:53.496Z,17.71
2023-03-31T10:59:06.702Z,17.04
2023-03-31T11:00:13.717Z,17.34
2023-03-31T11:01:11.213Z,17.51
2023-03-31T11:02:17.536Z,17.29
2023-03-31T11:03:22.340Z,17.44
2023-03-31T11:05:00.922Z,17.53
2023-03-31T11:06:22.498Z,17.38
2023-03-31T11:07:37.532Z,17.02
2023-03-31T11:08:52.523Z,17.01
2023-03-31T11:10:04.128Z,17.03
2023-03-31T11:11:21.689Z,17.04
2023-03-31T11:12:34.485Z,17.27
2023-03-31T11:14:03.919Z,17.13
2023-03-31T11:15:30.342Z,17.13
2023-03-31T11:16:59.165Z,17.33
2023-03-31T11:18:17.185Z,17.20
2023-03-31T11:19:41.146Z,17.21
2023-03-31T11:20:59.479Z,16.72
2023-03-31T11:22:26.076Z,16.61
2023-03-31T11:23:25.502Z,16.79
2023-03-31T11:24:36.333Z,16.65
2023-03-31T11:25:39.948Z,16.74
2023-03-31T11:26:56.166Z,16.82
2023-03-31T11:28:13.893Z,16.79
2023-03-31T11:29:37.612Z,17.01
2023-03-31T11:30:53.409Z,16.64
2023-03-31T11:32:29.384Z,16.53
2023-03-31T11:33:30.655Z,16.41
2023-03-31T11:35:14.544Z,16.51
2023-03-31T11:36:53.197Z,16.62
2023-03-31T11:38:23.763Z,16.54
2023-03-31T11:39:37.862Z,16.50
2023-03-31T11:40:49.499Z,16.49
2023-03-31T11:42:01.298Z,16.60
2023-03-31T11:43:07.361Z,16.34
2023-03-31T11:44:13.317Z,16.40
2023-03-31T11:45:41.478Z,16.41
2023-03-31T11:46:53.090Z,16.73
2023-03-31T11:47:57.638Z,16.63
2023-03-31T11:49:27.114Z,16.65
2023-03-31T11:50:32.979Z,16.80
2023-03-31T11:51:48.060Z,16.87
2023-03-31T11:53:01.160Z,16.80
2023-03-31T11:54:03.867Z,16.81
2023-03-31T11:55:21.776Z,16.50
2023-03-31T11:56:24.560Z,16.70
2023-03-31T11:57:36.439Z,16.79
2023-03-31T11:58:47.280Z,16.47
2023-03-31T11:59:54.131Z,16.55
2023-03-31T12:01:16.926Z,16.80
2023-03-31T12:02:46.440Z,16.94
2023-03-31T12:04:11.714Z,17.17
2023-03-31T12:05:12.973Z,16.97
2023-03-31T12:06:19.077Z,17.33
2023-03-31T12:07:45.260Z,17.27
2023-03-31T12:09:00.556Z,16.93
2023-03-31T12:10:11.899Z,16.90
2023-03-31T12:11:36.061Z,17.52
2023-03-31T12:13:02.527Z,17.41
2023-03-31T12:14:21.233Z,17.06
2023-03-31T12:15:30.197Z,17.00
2023-03-31T12:16:38.960Z,17.04
2023-03-31T12:17:44.642Z,17.23
2023-03-31T12:19:17.878Z,17.19
2023-03-31T12:20:39.750Z,17.19
2023-03-31T12:21:41.331Z,17.00
2023-03-31T12:22:44.390Z,16.86
2023-03-31T12:23:45.712Z,17.03
2023-03-31T12:24:42.659Z,16.94
2023-03-31T12:25:50.424Z,17.07
2023-03-31T12:26:57.676Z,16.96
2023-03-31T12:27:56.627Z,16.77
2023-03-31T12:29:00.834Z,17.19
2023-03-31T12:29:59.671Z,16.92
2023-03-31T12:31:00.404Z,16.99
2023-03-31T12:32:03.239Z,17.19
2023-03-31T12:33:20.467Z,16.77
2023-03-31T12:34:22.009Z,16.91
2023-03-31T12:35:33.636Z,17.20
2023-03-31T12:36:39.713Z,16.71
2023-03-31T12:38:15.027Z,17.34
2023-03-31T12:39:33.374Z,17.71
2023-03-31T12:40:41.798Z,17.03
2023-03-31T12:42:03.060Z,17.34
2023-03-31T12:43:14.681Z,17.49
2023-03-31T12:44:50.496Z,17.48
2023-03-31T12:45:53.016Z,17.67
2023-03-31T12:47:11.210Z,17.58
2023-03-31T12:48:34.689Z,17.64
2023-03-31T12:49:59.922Z,17.62
2023-03-31T12:51:10.771Z,17.25
2023-03-31T12:52:16.821Z,17.63
2023-03-31T12:53:16.352Z,17.69
2023-03-31T12:54:52.048Z,17.53
2023-03-31T12:55:49.557Z,17.69
2023-03-31T12:57:04.464Z,17.83
2023-03-31T12:58:22.731Z,17.92
2023-03-31T12:59:33.236Z,17.63
2023-03-31T13:00:30.334Z,17.52
2023-03-31T13:01:28.124Z,17.86
2023-03-31T13:02:26.730Z,17.86
2023-03-31T13:03:45.374Z,17.81
2023-03-31T13:04:43.585Z,17.63
2023-03-31T13:05:47.787Z,18.14
2023-03-31T13:06:53.958Z,18.19
2023-03-31T13:08:02.778Z,18.26
2023-03-31T13:09:00.977Z,18.70
2023-03-31T13:10:14.111Z,18.96
2023-03-31T13:11:11.065Z,18.97
2023-03-31T13:12:14.771Z,18.98
2023-03-31T13:13:17.018Z,18.82
2023-03-31T13:14:19.368Z,18.78
2023-03-31T13:15:17.257Z,18.28
2023-03-31T13:16:22.204Z,18.46
2023-03-31T13:17:26.453Z,18.64
2023-03-31T13:18:24.496Z,18.30
2023-03-31T13:19:34.422Z,18.17
2023-03-31T13:20:38.107Z,18.12
2023-03-31T13:21:54.295Z,18.47
2023-03-31T13:23:21.217Z,18.56
2023-03-31T13:24:23.697Z,18.56
2023-03-31T13:25:29.502Z,18.35
2023-03-31T13:26:41.461Z,17.94
2023-03-31T13:27:49.716Z,17.98
2023-03-31T13:28:46.616Z,17.95
2023-03-31T13:29:44.994Z,18.20
2023-03-31T13:30:41.742Z,18.19
2023-03-31T13:32:02.740Z,18.35
2023-03-31T13:33:29.038Z,18.12
2023-03-31T13:34:29.808Z,17.69
2023-03-31T13:35:34.001Z,17.68
2023-03-31T13:36:33.845Z,18.06
2023-03-31T13:37:53.196Z,17.97
2023-03-31T13:39:13.087Z,17.99
2023-03-31T13:40:49.121Z,18.09
2023-03-31T13:42:14.606Z,18.05
2023-03-31T13:43:43.971Z,17.92
2023-03-31T13:44:54.130Z,17.88
2023-03-31T13:46:24.219Z,17.65
2023-03-31T13:47:34.560Z,17.59
2023-03-31T13:48:42.425Z,17.62